createdAt,value
2019-03-24T00:00:44.682Z,102817.00
2019-03-24T00:03:13.475Z,102818.54
2019-03-24T00:05:41.881Z,102815.51
2019-03-24T00:08:10.295Z,102820.03
2019-03-24T00:10:38.702Z,102814.90
2019-03-24T00:13:08.486Z,102817.84
2019-03-24T00:15:36.811Z,102819.03
2019-03-24T00:18:05.695Z,102822.35
2019-03-24T00:20:34.099Z,102826.17
2019-03-24T00:23:03.408Z,102826.31
2019-03-24T00:25:34.359Z,102822.81
2019-03-24T00:28:02.743Z,102824.77
2019-03-24T00:30:31.152Z,102825.17
2019-03-24T00:32:59.525Z,102818.62
2019-03-24T00:35:27.923Z,102820.42
2019-03-24T00:37:56.315Z,102821.05
2019-03-24T00:40:24.719Z,102812.20
2019-03-24T00:42:53.103Z,102808.55
2019-03-24T00:45:25.262Z,102805.28
2019-03-24T00:47:53.690Z,102804.60
2019-03-24T00:50:29.126Z,102803.41
2019-03-24T00:52:56.483Z,102803.64
2019-03-24T00:55:24.964Z,102795.50
2019-03-24T00:57:53.392Z,102795.50
2019-03-24T01:00:39.013Z,102787.90
2019-03-24T01:03:08.429Z,102790.53
2019-03-24T01:05:36.873Z,102793.49
2019-03-24T01:08:05.261Z,102789.84
2019-03-24T01:10:36.052Z,102792.48
2019-03-24T01:13:04.813Z,102799.84
2019-03-24T01:15:33.225Z,102803.33
2019-03-24T01:18:01.877Z,102804.50
2019-03-24T01:20:31.268Z,102804.50
2019-03-24T01:22:59.649Z,102786.73
2019-03-24T01:25:28.097Z,102789.91
2019-03-24T01:27:56.503Z,102784.16
2019-03-24T01:30:24.891Z,102781.61
2019-03-24T01:32:54.382Z,102779.14
2019-03-24T01:35:22.754Z,102775.33
2019-03-24T01:37:51.162Z,102775.33
2019-03-24T01:40:20.838Z,102781.22
2019-03-24T01:42:49.259Z,102781.22
2019-03-24T01:45:17.731Z,102787.24
2019-03-24T01:47:46.144Z,102788.03
2019-03-24T01:50:14.680Z,102781.27
2019-03-24T01:52:43.061Z,102781.75
2019-03-24T01:55:14.464Z,102776.16
2019-03-24T01:57:42.843Z,102776.16
2019-03-24T02:00:14.356Z,102776.16
2019-03-24T02:02:42.749Z,102776.16
2019-03-24T02:05:11.335Z,102772.08
2019-03-24T02:07:40.815Z,102767.72
2019-03-24T02:10:12.112Z,102763.77
2019-03-24T02:12:40.508Z,102762.45
2019-03-24T02:15:12.189Z,102759.64
2019-03-24T02:17:42.579Z,102764.61
2019-03-24T02:20:11.194Z,102765.53
2019-03-24T02:22:40.674Z,102768.95
2019-03-24T02:25:12.023Z,102758.72
2019-03-24T02:27:43.198Z,102750.50
2019-03-24T02:30:11.970Z,102751.25
2019-03-24T02:32:40.363Z,102740.25
2019-03-24T02:35:12.660Z,102754.77
2019-03-24T02:37:42.095Z,102761.97
2019-03-24T02:40:12.126Z,102761.05
2019-03-24T02:42:40.544Z,102754.98
2019-03-24T02:45:09.507Z,102757.14
2019-03-24T02:47:38.088Z,102769.18
2019-03-24T02:50:08.546Z,102768.03
2019-03-24T02:52:36.954Z,102769.44
2019-03-24T02:55:07.208Z,102766.55
2019-03-24T02:57:35.616Z,102765.22
2019-03-24T03:00:09.105Z,102767.08
2019-03-24T03:02:37.528Z,102765.31
2019-03-24T03:05:08.204Z,102754.84
2019-03-24T03:07:36.610Z,102760.34
2019-03-24T03:10:08.811Z,102756.08
2019-03-24T03:12:38.335Z,102752.58
2019-03-24T03:15:11.342Z,102747.30
2019-03-24T03:17:39.771Z,102750.50
2019-03-24T03:20:09.028Z,102743.27
2019-03-24T03:22:37.457Z,102743.66
2019-03-24T03:25:08.652Z,102737.23
2019-03-24T03:27:37.131Z,102741.59
2019-03-24T03:30:10.894Z,102733.11
2019-03-24T03:32:39.409Z,102732.36
2019-03-24T03:35:10.403Z,102721.70
2019-03-24T03:37:38.882Z,102721.02
2019-03-24T03:40:07.953Z,102723.27
2019-03-24T03:42:37.182Z,102718.61
2019-03-24T03:45:06.433Z,102713.73
2019-03-24T03:47:34.869Z,102710.88
2019-03-24T03:50:04.229Z,102714.97
2019-03-24T03:52:32.638Z,102710.63
2019-03-24T03:55:04.622Z,102703.10
2019-03-24T03:57:33.028Z,102707.53
2019-03-24T04:00:01.437Z,102701.70
2019-03-24T04:02:29.831Z,102698.14
2019-03-24T04:04:58.261Z,102689.70
2019-03-24T04:07:26.734Z,102691.16
2019-03-24T04:09:55.146Z,102694.58
2019-03-24T04:12:23.576Z,102697.38
2019-03-24T04:14:51.970Z,102694.36
2019-03-24T04:17:20.385Z,102691.24
2019-03-24T04:19:48.798Z,102690.23
2019-03-24T04:22:19.840Z,102643.22
2019-03-24T04:24:48.251Z,102687.52
2019-03-24T04:27:16.669Z,102689.53
2019-03-24T04:29:45.080Z,102697.22
2019-03-24T04:32:13.478Z,102695.91
2019-03-24T04:34:41.875Z,102692.39
2019-03-24T04:37:10.272Z,102690.68
2019-03-24T04:39:38.689Z,102692.48
2019-03-24T04:42:08.197Z,102692.48
2019-03-24T04:44:36.590Z,102687.34
2019-03-24T04:47:16.148Z,102680.93
2019-03-24T04:49:39.014Z,102686.20
2019-03-24T04:52:07.410Z,102686.81
2019-03-24T04:54:35.788Z,102689.37
2019-03-24T04:57:04.204Z,102693.18
2019-03-24T04:59:32.602Z,102691.08
2019-03-24T05:02:01.003Z,102700.08
2019-03-24T05:04:29.507Z,102703.38
2019-03-24T05:06:59.327Z,102697.22
2019-03-24T05:09:28.797Z,102692.25
2019-03-24T05:11:57.200Z,102684.11
2019-03-24T05:14:26.529Z,102692.27
2019-03-24T05:16:54.986Z,102677.06
2019-03-24T05:19:24.264Z,102680.33
2019-03-24T05:21:52.668Z,102677.21
2019-03-24T05:24:21.066Z,102679.38
2019-03-24T05:26:53.253Z,102675.27
2019-03-24T05:29:22.728Z,102679.53
2019-03-24T05:31:51.132Z,102678.44
2019-03-24T05:34:21.595Z,102680.76
2019-03-24T05:36:50.015Z,102678.17
2019-03-24T05:39:18.398Z,102677.20
2019-03-24T05:41:46.812Z,102677.03
2019-03-24T05:44:15.236Z,102685.72
2019-03-24T05:46:44.748Z,102673.47
2019-03-24T05:49:13.155Z,102661.53
2019-03-24T05:51:44.035Z,102658.66
2019-03-24T05:54:12.441Z,102666.73
2019-03-24T05:56:43.470Z,102672.94
2019-03-24T05:59:11.879Z,102677.59
2019-03-24T06:01:40.365Z,102678.68
2019-03-24T06:04:08.794Z,102675.28
2019-03-24T06:06:37.208Z,102664.65
2019-03-24T06:09:06.559Z,102665.97
2019-03-24T06:11:36.117Z,102662.23
2019-03-24T06:14:04.551Z,102673.19
2019-03-24T06:16:32.975Z,102671.31
2019-03-24T06:19:01.358Z,102671.31
2019-03-24T06:21:33.629Z,102670.15
2019-03-24T06:24:02.014Z,102663.23
2019-03-24T06:26:31.329Z,102659.48
2019-03-24T06:28:59.738Z,102659.06
2019-03-24T06:31:28.366Z,102653.19
2019-03-24T06:33:56.748Z,102643.97
2019-03-24T06:36:25.161Z,102644.31
2019-03-24T06:38:53.574Z,102641.77
2019-03-24T06:41:21.966Z,102644.80
2019-03-24T06:43:50.359Z,102646.41
2019-03-24T06:46:22.902Z,102656.28
2019-03-24T06:48:51.569Z,102650.31
2019-03-24T06:51:21.058Z,102647.02
2019-03-24T06:53:49.490Z,102652.95
2019-03-24T06:56:17.876Z,102650.02
2019-03-24T06:58:46.299Z,102654.59
2019-03-24T07:01:14.690Z,102655.76
2019-03-24T07:03:43.123Z,102653.12
2019-03-24T07:06:11.507Z,102643.52
2019-03-24T07:08:42.380Z,102639.97
2019-03-24T07:11:13.701Z,102631.69
2019-03-24T07:13:43.859Z,102636.91
2019-03-24T07:16:13.328Z,102631.33
2019-03-24T07:18:44.215Z,102640.44
2019-03-24T07:21:16.531Z,102632.14
2019-03-24T07:23:44.915Z,102631.11
2019-03-24T07:26:13.773Z,102630.88
2019-03-24T07:28:45.794Z,102634.73
2019-03-24T07:31:14.224Z,102626.58
2019-03-24T07:33:42.623Z,102622.05
2019-03-24T07:36:11.995Z,102619.80
2019-03-24T07:38:40.416Z,102626.91
2019-03-24T07:41:08.795Z,102623.59
2019-03-24T07:43:40.221Z,102623.70
2019-03-24T07:46:12.714Z,102608.29
2019-03-24T07:48:40.367Z,102608.95
2019-03-24T07:51:08.700Z,102611.69
2019-03-24T07:53:39.848Z,102610.41
2019-03-24T07:56:10.989Z,102616.28
2019-03-24T07:58:39.459Z,102608.00
2019-03-24T08:01:11.207Z,102609.40
2019-03-24T08:03:41.661Z,102602.86
2019-03-24T08:06:10.069Z,102604.23
2019-03-24T08:08:44.623Z,102597.96
2019-03-24T08:11:14.414Z,102602.02
2019-03-24T08:13:53.142Z,102604.23
2019-03-24T08:16:12.987Z,102598.89
2019-03-24T08:19:20.348Z,102594.17
2019-03-24T08:21:26.680Z,102595.20
2019-03-24T08:23:56.128Z,102588.45
2019-03-24T08:26:33.424Z,102600.48
2019-03-24T08:29:03.171Z,102601.33
2019-03-24T08:31:47.157Z,102596.51
2019-03-24T08:34:20.689Z,102592.27
2019-03-24T08:36:51.469Z,102588.93
2019-03-24T08:39:24.575Z,102588.69
2019-03-24T08:41:57.034Z,102585.01
2019-03-24T08:44:25.710Z,102579.34
2019-03-24T08:46:56.722Z,102574.02
2019-03-24T08:49:30.015Z,102578.06
2019-03-24T08:53:23.409Z,102578.06
2019-03-24T08:55:56.242Z,102578.06
2019-03-24T08:58:35.480Z,102553.08
2019-03-24T09:01:02.974Z,102556.20
2019-03-24T09:03:37.304Z,102558.55
2019-03-24T09:06:05.768Z,102555.20
2019-03-24T09:08:34.168Z,102546.42
2019-03-24T09:11:02.623Z,102545.08
2019-03-24T09:13:32.435Z,102537.58
2019-03-24T09:16:04.066Z,102535.63
2019-03-24T09:18:31.983Z,102534.29
2019-03-24T09:21:06.183Z,102524.29
2019-03-24T09:23:34.587Z,102528.53
2019-03-24T09:26:02.975Z,102516.52
2019-03-24T09:28:31.371Z,102512.75
2019-03-24T09:31:00.598Z,102512.77
2019-03-24T09:33:29.016Z,102515.75
2019-03-24T09:35:57.398Z,102515.84
2019-03-24T09:38:25.816Z,102514.08
2019-03-24T09:40:54.238Z,102514.25
2019-03-24T09:43:22.668Z,102506.98
2019-03-24T09:45:51.040Z,102514.14
2019-03-24T09:48:20.270Z,102515.77
2019-03-24T09:50:48.689Z,102516.14
2019-03-24T09:53:18.071Z,102500.52
2019-03-24T09:55:49.120Z,102495.69
2019-03-24T09:58:17.881Z,102501.50
2019-03-24T10:00:48.727Z,102494.00
2019-03-24T10:03:17.155Z,102492.95
2019-03-24T10:05:50.017Z,102490.29
2019-03-24T10:08:18.400Z,102489.11
2019-03-24T10:10:46.810Z,102476.05
2019-03-24T10:14:29.382Z,102473.98
2019-03-24T10:16:57.770Z,102473.98
2019-03-24T10:19:51.195Z,102444.04
2019-03-24T10:22:23.217Z,102444.04
2019-03-24T10:24:56.800Z,102444.04
2019-03-24T10:27:25.261Z,102444.04
2019-03-24T10:30:09.139Z,102427.22
2019-03-24T10:32:37.528Z,102427.22
2019-03-24T10:36:13.950Z,102416.35
2019-03-24T10:38:44.021Z,102416.35
2019-03-24T10:41:14.890Z,102413.77
2019-03-24T10:43:44.411Z,102414.73
2019-03-24T10:46:21.908Z,102404.90
2019-03-24T10:48:57.550Z,102401.26
2019-03-24T10:51:37.540Z,102403.63
2019-03-24T10:54:05.940Z,102403.63
2019-03-24T10:56:34.395Z,102416.64
2019-03-24T10:59:07.532Z,102409.25
2019-03-24T11:01:35.941Z,102408.14
2019-03-24T11:04:07.862Z,102406.78
2019-03-24T11:06:39.808Z,102405.36
2019-03-24T11:09:12.699Z,102402.53
2019-03-24T11:11:47.729Z,102405.81
2019-03-24T11:14:16.130Z,102404.48
2019-03-24T11:16:44.532Z,102401.20
2019-03-24T11:19:12.914Z,102398.84
2019-03-24T11:21:42.390Z,102393.86
2019-03-24T11:24:10.808Z,102381.96
2019-03-24T11:26:44.666Z,102383.36
2019-03-24T11:29:13.111Z,102378.28
2019-03-24T11:31:41.500Z,102375.96
2019-03-24T11:34:09.887Z,102365.13
2019-03-24T11:36:38.292Z,102361.50
2019-03-24T11:39:07.833Z,102354.84
2019-03-24T11:41:38.562Z,102360.17
2019-03-24T11:44:08.666Z,102358.91
2019-03-24T11:46:37.043Z,102351.36
2019-03-24T11:49:06.976Z,102355.95
2019-03-24T11:51:35.359Z,102356.02
2019-03-24T11:54:03.752Z,102344.05
2019-03-24T11:56:32.191Z,102338.58
2019-03-24T11:59:00.528Z,102331.30
2019-03-24T12:01:38.219Z,102339.84
2019-03-24T12:04:01.034Z,102327.55
2019-03-24T12:06:29.406Z,102321.39
2019-03-24T12:08:57.821Z,102312.86
2019-03-24T12:11:26.242Z,102315.17
2019-03-24T12:13:54.640Z,102315.17
2019-03-24T12:16:23.135Z,102301.69
2019-03-24T12:18:51.537Z,102306.56
2019-03-24T12:21:37.181Z,102298.05
2019-03-24T12:24:08.272Z,102298.05
2019-03-24T12:26:40.442Z,102297.00
2019-03-24T12:29:09.453Z,102296.51
2019-03-24T12:31:37.835Z,102290.13
2019-03-24T12:34:12.530Z,102280.64
2019-03-24T12:36:40.953Z,102288.86
2019-03-24T12:39:24.510Z,102282.33
2019-03-24T12:41:52.897Z,102290.61
2019-03-24T12:44:51.634Z,102284.08
2019-03-24T12:47:21.017Z,102284.08
2019-03-24T12:49:49.394Z,102272.69
2019-03-24T12:52:18.464Z,102264.13
2019-03-24T12:54:54.685Z,102264.47
2019-03-24T12:57:40.086Z,102261.89
2019-03-24T13:00:09.635Z,102253.53
2019-03-24T13:02:39.058Z,102246.06
2019-03-24T13:05:36.946Z,102237.17
2019-03-24T13:08:22.482Z,102234.55
2019-03-24T13:10:50.816Z,102240.82
2019-03-24T13:16:21.996Z,102237.18
2019-03-24T13:19:19.882Z,102235.23
2019-03-24T13:24:38.601Z,102219.59
2019-03-24T13:27:22.471Z,102219.68
2019-03-24T13:29:53.155Z,102208.97
2019-03-24T13:32:26.878Z,102204.91
2019-03-24T13:34:55.287Z,102199.23
2019-03-24T13:37:29.497Z,102203.24
2019-03-24T13:39:59.026Z,102196.30
2019-03-24T13:42:30.977Z,102193.76
2019-03-24T13:45:05.117Z,102188.83
2019-03-24T13:47:37.627Z,102180.60
2019-03-24T13:50:06.948Z,102181.42
2019-03-24T13:52:35.431Z,102174.22
2019-03-24T13:55:05.202Z,102174.12
2019-03-24T13:57:36.070Z,102173.54
2019-03-24T14:00:06.518Z,102163.64
2019-03-24T14:02:41.933Z,102166.96
2019-03-24T14:05:08.703Z,102166.55
2019-03-24T14:07:37.121Z,102173.52
2019-03-24T14:10:07.268Z,102165.06
2019-03-24T14:12:35.679Z,102160.45
2019-03-24T14:15:06.370Z,102166.31
2019-03-24T14:17:34.759Z,102156.36
2019-03-24T14:20:04.682Z,102154.41
2019-03-24T14:22:33.083Z,102153.88
2019-03-24T14:25:02.545Z,102140.67
2019-03-24T14:27:34.837Z,102139.84
2019-03-24T14:30:04.771Z,102134.45
2019-03-24T14:32:42.436Z,102128.58
2019-03-24T14:35:17.395Z,102126.08
2019-03-24T14:37:55.248Z,102114.07
2019-03-24T14:40:29.337Z,102113.09
2019-03-24T14:42:59.383Z,102105.62
2019-03-24T14:45:31.518Z,102104.67
2019-03-24T14:47:59.942Z,102100.50
2019-03-24T14:50:28.338Z,102089.50
2019-03-24T14:52:59.705Z,102081.41
2019-03-24T14:55:40.946Z,102081.94
2019-03-24T14:58:06.254Z,102081.47
2019-03-24T15:00:41.474Z,102081.65
2019-03-24T15:03:23.065Z,102077.59
2019-03-24T15:05:51.453Z,102081.77
2019-03-24T15:08:19.848Z,102083.34
2019-03-24T15:10:48.250Z,102076.70
2019-03-24T15:13:16.730Z,102080.14
2019-03-24T15:15:45.132Z,102078.45
2019-03-24T15:18:22.324Z,102072.59
2019-03-24T15:21:05.487Z,102070.95
2019-03-24T15:23:27.705Z,102064.86
2019-03-24T15:25:56.100Z,102061.90
2019-03-24T15:28:41.387Z,102058.30
2019-03-24T15:31:13.511Z,102046.99
2019-03-24T15:33:42.960Z,102045.64
2019-03-24T15:36:13.466Z,102052.48
2019-03-24T15:38:42.952Z,102047.04
2019-03-24T15:41:18.294Z,102042.12
2019-03-24T15:43:46.249Z,102043.36
2019-03-24T15:46:14.642Z,102035.21
2019-03-24T15:48:43.046Z,102036.63
2019-03-24T15:51:16.715Z,102037.91
2019-03-24T15:53:41.551Z,102037.13
2019-03-24T15:56:09.930Z,102036.69
2019-03-24T15:58:40.969Z,102031.20
2019-03-24T16:01:11.454Z,102031.91
2019-03-24T16:03:39.850Z,102028.16
2019-03-24T16:06:08.235Z,102029.97
2019-03-24T16:08:36.720Z,102026.41
2019-03-24T16:11:05.103Z,102022.89
2019-03-24T16:13:36.026Z,102026.63
2019-03-24T16:16:04.421Z,102019.70
2019-03-24T16:18:34.521Z,102016.24
2019-03-24T16:21:03.924Z,102021.20
2019-03-24T16:23:34.270Z,102024.53
2019-03-24T16:26:03.093Z,102021.30
2019-03-24T16:28:31.669Z,102014.02
2019-03-24T16:31:00.057Z,102014.97
2019-03-24T16:33:28.470Z,102011.34
2019-03-24T16:35:56.863Z,102001.09
2019-03-24T16:38:27.040Z,101994.46
2019-03-24T16:40:55.908Z,101996.05
2019-03-24T16:43:24.296Z,101995.93
2019-03-24T16:45:52.693Z,101987.73
2019-03-24T16:48:24.705Z,101982.73
2019-03-24T16:50:56.144Z,101977.98
2019-03-24T16:53:27.335Z,101988.59
2019-03-24T16:55:55.731Z,101976.30
2019-03-24T16:58:24.152Z,101979.44
2019-03-24T17:00:56.360Z,101975.10
2019-03-24T17:03:29.372Z,101968.83
2019-03-24T17:06:00.228Z,101962.43
2019-03-24T17:08:28.696Z,101961.60
2019-03-24T17:10:57.119Z,101962.92
2019-03-24T17:13:25.607Z,101962.31
2019-03-24T17:15:53.986Z,101956.41
2019-03-24T17:18:37.827Z,101956.05
2019-03-24T17:21:04.516Z,101945.67
2019-03-24T17:23:36.501Z,101940.00
2019-03-24T17:26:08.668Z,101941.57
2019-03-24T17:28:37.066Z,101944.80
2019-03-24T17:31:12.775Z,101942.09
2019-03-24T17:33:41.200Z,101949.80
2019-03-24T17:36:12.898Z,101955.14
2019-03-24T17:38:42.371Z,101949.14
2019-03-24T17:41:16.151Z,101950.22
2019-03-24T17:43:44.552Z,101948.95
2019-03-24T17:46:12.944Z,101953.97
2019-03-24T17:48:41.356Z,101940.00
2019-03-24T17:51:16.039Z,101950.67
2019-03-24T17:53:44.621Z,101936.41
2019-03-24T17:56:15.410Z,101937.45
2019-03-24T17:58:43.857Z,101935.88
2019-03-24T18:01:12.237Z,101934.26
2019-03-24T18:03:40.618Z,101931.81
2019-03-24T18:06:10.296Z,101935.44
2019-03-24T18:08:38.599Z,101932.28
2019-03-24T18:11:07.004Z,101927.20
2019-03-24T18:13:40.798Z,101934.23
2019-03-24T18:16:09.212Z,101928.70
2019-03-24T18:18:37.619Z,101922.11
2019-03-24T18:21:06.118Z,101931.42
2019-03-24T18:23:35.530Z,101927.17
2019-03-24T18:26:04.165Z,101926.11
2019-03-24T18:28:32.609Z,101921.05
2019-03-24T18:31:09.413Z,101925.08
2019-03-24T18:33:37.830Z,101927.59
2019-03-24T18:36:07.268Z,101920.66
2019-03-24T18:38:35.756Z,101911.53
2019-03-24T18:41:04.252Z,101918.34
2019-03-24T18:43:33.720Z,101921.70
2019-03-24T18:46:02.823Z,101918.05
2019-03-24T18:48:32.024Z,101919.15
2019-03-24T18:51:00.427Z,101914.63
2019-03-24T18:53:28.910Z,101908.44
2019-03-24T18:55:57.428Z,101913.27
2019-03-24T18:58:33.675Z,101913.27
2019-03-24T19:00:59.326Z,101904.03
2019-03-24T19:03:28.896Z,101901.50
2019-03-24T19:05:58.365Z,101907.08
2019-03-24T19:08:30.225Z,101901.13
2019-03-24T19:11:01.049Z,101906.67
2019-03-24T19:13:29.520Z,101891.21
2019-03-24T19:15:57.898Z,101879.41
2019-03-24T19:18:26.305Z,101878.16
2019-03-24T19:20:54.688Z,100943.83
2019-03-24T19:23:23.113Z,101867.50
2019-03-24T19:25:52.803Z,101862.63
2019-03-24T19:28:21.535Z,101857.99
2019-03-24T19:30:53.180Z,101853.35
2019-03-24T19:33:21.236Z,101852.40
2019-03-24T19:35:50.021Z,101849.45
2019-03-24T19:38:19.750Z,101847.81
2019-03-24T19:40:48.181Z,101840.89
2019-03-24T19:43:16.597Z,101840.16
2019-03-24T19:45:45.976Z,101838.91
2019-03-24T19:48:14.394Z,101825.44
2019-03-24T19:50:42.785Z,101826.95
2019-03-24T19:53:11.162Z,101827.45
2019-03-24T19:55:42.090Z,101824.13
2019-03-24T19:58:10.494Z,101817.20
2019-03-24T20:00:38.970Z,101818.45
2019-03-24T20:03:07.451Z,101817.45
2019-03-24T20:05:35.857Z,101809.22
2019-03-24T20:08:04.527Z,101805.58
2019-03-24T20:10:39.435Z,101801.79
2019-03-24T20:13:07.824Z,101794.44
2019-03-24T20:15:36.226Z,101781.67
2019-03-24T20:18:08.791Z,101776.09
2019-03-24T20:20:36.447Z,101766.66
2019-03-24T20:23:06.381Z,101759.56
2019-03-24T20:25:38.008Z,101750.19
2019-03-24T20:28:07.480Z,101746.80
2019-03-24T20:30:35.909Z,101732.52
2019-03-24T20:33:04.385Z,101724.59
2019-03-24T20:35:33.759Z,101721.70
2019-03-24T20:38:03.537Z,101716.50
2019-03-24T20:40:31.948Z,101713.92
2019-03-24T20:43:02.467Z,101708.43
2019-03-24T20:45:30.429Z,101713.08
2019-03-24T20:47:58.885Z,101714.28
2019-03-24T20:50:27.332Z,101702.41
2019-03-24T20:53:05.490Z,101704.02
2019-03-24T20:55:26.236Z,101696.05
2019-03-24T20:57:56.809Z,101692.95
2019-03-24T21:00:36.725Z,101687.30
2019-03-24T21:03:07.068Z,101697.30
2019-03-24T21:05:36.047Z,101690.22
2019-03-24T21:08:04.783Z,101690.22
2019-03-24T21:10:33.226Z,101686.89
2019-03-24T21:13:01.598Z,101684.56
2019-03-24T21:15:36.684Z,101681.11
2019-03-24T21:18:05.321Z,101678.17
2019-03-24T21:20:33.712Z,101670.48
2019-03-24T21:23:03.376Z,101666.17
2019-03-24T21:25:31.756Z,101664.33
2019-03-24T21:28:00.176Z,101657.80
2019-03-24T21:30:38.504Z,101656.48
2019-03-24T21:33:08.481Z,101649.41
2019-03-24T21:35:41.092Z,101641.55
2019-03-24T21:38:09.772Z,101636.70
2019-03-24T21:40:38.243Z,101635.56
2019-03-24T21:43:06.885Z,101632.00
2019-03-24T21:45:35.207Z,101624.44
2019-03-24T21:48:03.783Z,101625.63
2019-03-24T21:50:34.665Z,101630.53
2019-03-24T21:53:03.062Z,101615.08
2019-03-24T21:55:31.523Z,101609.75
2019-03-24T21:58:00.088Z,101605.39
2019-03-24T22:00:33.487Z,101602.84
2019-03-24T22:03:17.475Z,101595.53
2019-03-24T22:05:45.862Z,101592.03
2019-03-24T22:08:15.495Z,101589.19
2019-03-24T22:10:43.876Z,101580.01
2019-03-24T22:13:14.381Z,101577.26
2019-03-24T22:15:48.614Z,101579.13
2019-03-24T22:18:19.855Z,101568.90
2019-03-24T22:20:49.287Z,101560.67
2019-03-24T22:23:18.793Z,101559.23
2019-03-24T22:25:47.199Z,101552.45
2019-03-24T22:28:15.584Z,101537.15
2019-03-24T22:30:45.106Z,101541.22
2019-03-24T22:33:13.497Z,101532.14
2019-03-24T22:35:41.912Z,101528.79
2019-03-24T22:38:14.060Z,101523.30
2019-03-24T22:40:42.411Z,101519.66
2019-03-24T22:43:13.473Z,101514.06
2019-03-24T22:45:41.853Z,101501.32
2019-03-24T22:48:10.303Z,101498.80
2019-03-24T22:50:38.748Z,101498.80
2019-03-24T22:53:07.133Z,101482.73
2019-03-24T22:55:35.597Z,101480.36
2019-03-24T22:58:08.962Z,101479.09
2019-03-24T23:00:50.773Z,101460.73
2019-03-24T23:03:25.734Z,101450.06
2019-03-24T23:05:59.227Z,101447.25
2019-03-24T23:08:27.619Z,101434.83
2019-03-24T23:10:56.098Z,101427.23
2019-03-24T23:13:26.663Z,101425.85
2019-03-24T23:15:55.062Z,101423.09
2019-03-24T23:18:24.702Z,101407.45
2019-03-24T23:20:53.041Z,101399.02
2019-03-24T23:23:21.449Z,101398.31
2019-03-24T23:25:49.838Z,101398.81
2019-03-24T23:28:18.270Z,101396.80
2019-03-24T23:30:46.676Z,101376.20
2019-03-24T23:33:16.040Z,101370.19
2019-03-24T23:35:44.509Z,101365.88
2019-03-24T23:38:12.886Z,101358.97
2019-03-24T23:40:43.360Z,101342.48
2019-03-24T23:43:11.807Z,101337.95
2019-03-24T23:45:40.197Z,101335.95
2019-03-24T23:48:09.683Z,101331.10
2019-03-24T23:50:38.064Z,101323.19
2019-03-24T23:53:06.639Z,101310.42
2019-03-24T23:55:35.016Z,101312.47
2019-03-24T23:58:03.414Z,101302.39
